createdAt,value
2018-01-27T00:00:28.467Z,5.21
2018-01-27T00:02:56.876Z,5.15
2018-01-27T00:05:25.367Z,5.11
2018-01-27T00:07:53.754Z,5.12
2018-01-27T00:10:22.208Z,5.13
2018-01-27T00:12:50.757Z,5.12
2018-01-27T00:15:19.325Z,5.09
2018-01-27T00:17:47.869Z,5.04
2018-01-27T00:20:16.556Z,5.01
2018-01-27T00:22:52.815Z,4.98
2018-01-27T00:25:21.317Z,4.91
2018-01-27T00:27:49.789Z,4.88
2018-01-27T00:30:18.344Z,4.96
2018-01-27T00:32:46.847Z,5.09
2018-01-27T00:35:15.340Z,5.12
2018-01-27T00:37:43.908Z,5.13
2018-01-27T00:40:12.468Z,5.08
2018-01-27T00:42:41.055Z,5.17
2018-01-27T00:45:09.645Z,5.22
2018-01-27T00:47:38.108Z,5.11
2018-01-27T00:50:06.703Z,5.05
2018-01-27T00:52:35.110Z,4.90
2018-01-27T00:55:03.579Z,4.90
2018-01-27T00:57:32.175Z,4.90
2018-01-27T01:00:00.659Z,4.92
2018-01-27T01:02:30.076Z,5.01
2018-01-27T01:04:58.596Z,5.01
2018-01-27T01:07:27.101Z,4.89
2018-01-27T01:09:55.606Z,4.94
2018-01-27T01:12:24.190Z,5.04
2018-01-27T01:14:52.708Z,5.12
2018-01-27T01:17:21.970Z,5.17
2018-01-27T01:19:50.499Z,5.25
2018-01-27T01:22:19.000Z,5.29
2018-01-27T01:24:47.427Z,5.30
2018-01-27T01:27:15.973Z,5.32
2018-01-27T01:29:44.454Z,5.31
2018-01-27T01:32:12.958Z,5.34
2018-01-27T01:34:41.487Z,5.34
2018-01-27T01:37:09.894Z,5.33
2018-01-27T01:39:38.462Z,5.32
2018-01-27T01:42:06.909Z,5.41
2018-01-27T01:44:35.325Z,5.40
2018-01-27T01:47:03.842Z,5.38
2018-01-27T01:49:32.383Z,5.41
2018-01-27T01:52:00.808Z,5.42
2018-01-27T01:54:29.240Z,5.38
2018-01-27T01:56:57.743Z,5.47
2018-01-27T01:59:26.275Z,5.48
2018-01-27T02:01:54.931Z,5.49
2018-01-27T02:04:23.391Z,5.52
2018-01-27T02:06:51.864Z,5.56
2018-01-27T02:09:20.355Z,5.61
2018-01-27T02:11:48.786Z,5.64
2018-01-27T02:14:17.419Z,5.68
2018-01-27T02:16:45.918Z,5.77
2018-01-27T02:19:14.380Z,5.82
2018-01-27T02:21:42.803Z,5.91
2018-01-27T02:24:11.360Z,5.89
2018-01-27T02:26:39.841Z,5.94
2018-01-27T02:29:08.459Z,5.94
2018-01-27T02:31:36.891Z,5.99
2018-01-27T02:34:05.335Z,6.01
2018-01-27T02:36:34.553Z,6.03
2018-01-27T02:39:03.001Z,5.95
2018-01-27T02:41:31.520Z,5.83
2018-01-27T02:44:00.070Z,5.91
2018-01-27T02:46:29.321Z,5.90
2018-01-27T02:48:57.776Z,5.97
2018-01-27T02:51:26.242Z,5.89
2018-01-27T02:53:55.357Z,6.00
2018-01-27T02:56:23.802Z,6.01
2018-01-27T02:58:52.973Z,5.99
2018-01-27T03:01:21.368Z,6.01
2018-01-27T03:03:49.812Z,6.02
2018-01-27T03:06:18.181Z,6.01
2018-01-27T03:08:46.827Z,5.94
2018-01-27T03:11:15.965Z,6.01
2018-01-27T03:13:44.406Z,6.12
2018-01-27T03:16:12.828Z,6.09
2018-01-27T03:18:41.411Z,6.18
2018-01-27T03:21:10.041Z,6.16
2018-01-27T03:23:38.461Z,6.20
2018-01-27T03:26:07.058Z,6.20
2018-01-27T03:28:35.540Z,6.15
2018-01-27T03:31:03.975Z,6.16
2018-01-27T03:33:32.559Z,6.12
2018-01-27T03:36:01.785Z,6.03
2018-01-27T03:38:30.279Z,6.06
2018-01-27T03:40:58.748Z,6.09
2018-01-27T03:43:27.247Z,6.08
2018-01-27T03:45:55.790Z,6.08
2018-01-27T03:48:25.121Z,6.13
2018-01-27T03:50:53.570Z,6.17
2018-01-27T03:53:22.227Z,6.12
2018-01-27T03:55:50.780Z,6.10
2018-01-27T03:58:19.368Z,6.02
2018-01-27T04:00:47.891Z,5.98
2018-01-27T04:03:16.637Z,5.80
2018-01-27T04:05:45.106Z,5.97
2018-01-27T04:08:13.607Z,5.97
2018-01-27T04:10:42.385Z,6.06
2018-01-27T04:13:10.997Z,6.07
2018-01-27T04:15:39.535Z,6.06
2018-01-27T04:18:08.235Z,6.10
2018-01-27T04:20:36.828Z,6.08
2018-01-27T04:23:05.441Z,6.03
2018-01-27T04:25:33.884Z,6.02
2018-01-27T04:28:02.370Z,6.09
2018-01-27T04:30:30.856Z,6.21
2018-01-27T04:33:00.248Z,6.23
2018-01-27T04:35:28.871Z,6.23
2018-01-27T04:37:57.333Z,6.34
2018-01-27T04:40:25.999Z,6.39
2018-01-27T04:42:54.683Z,6.30
2018-01-27T04:45:23.196Z,6.26
2018-01-27T04:47:51.874Z,6.21
2018-01-27T04:50:20.430Z,6.11
2018-01-27T04:52:49.013Z,6.13
2018-01-27T04:55:17.527Z,6.10
2018-01-27T04:57:46.179Z,6.18
2018-01-27T05:00:14.598Z,6.22
2018-01-27T05:02:43.040Z,6.27
2018-01-27T05:05:11.552Z,6.23
2018-01-27T05:07:39.980Z,6.15
2018-01-27T05:10:09.310Z,6.22
2018-01-27T05:12:37.917Z,6.19
2018-01-27T05:15:06.545Z,6.19
2018-01-27T05:17:35.063Z,6.24
2018-01-27T05:20:03.820Z,6.21
2018-01-27T05:22:32.289Z,6.24
2018-01-27T05:25:00.696Z,6.23
2018-01-27T05:27:29.132Z,6.22
2018-01-27T05:29:57.603Z,6.21
2018-01-27T05:32:26.163Z,6.30
2018-01-27T05:34:54.770Z,6.35
2018-01-27T05:37:23.306Z,6.38
2018-01-27T05:39:51.874Z,6.29
2018-01-27T05:42:21.411Z,6.40
2018-01-27T05:44:49.960Z,6.44
2018-01-27T05:47:19.197Z,6.43
2018-01-27T05:49:47.647Z,6.34
2018-01-27T05:52:17.010Z,6.39
2018-01-27T05:54:45.508Z,6.17
2018-01-27T05:57:14.000Z,6.31
2018-01-27T05:59:43.263Z,6.30
2018-01-27T06:02:11.690Z,6.04
2018-01-27T06:04:40.989Z,6.17
2018-01-27T06:07:10.274Z,6.23
2018-01-27T06:09:39.573Z,6.26
2018-01-27T06:12:08.105Z,6.18
2018-01-27T06:14:36.555Z,6.15
2018-01-27T06:17:05.926Z,5.99
2018-01-27T06:19:34.414Z,6.03
2018-01-27T06:22:02.998Z,5.94
2018-01-27T06:24:32.265Z,5.89
2018-01-27T06:27:00.776Z,5.85
2018-01-27T06:29:30.045Z,5.85
2018-01-27T06:31:58.554Z,5.80
2018-01-27T06:34:27.137Z,5.77
2018-01-27T06:36:55.638Z,5.76
2018-01-27T06:39:24.852Z,5.66
2018-01-27T06:41:53.301Z,5.70
2018-01-27T06:44:21.712Z,5.65
2018-01-27T06:46:50.186Z,5.59
2018-01-27T06:49:19.384Z,5.52
2018-01-27T06:51:47.820Z,5.48
2018-01-27T06:54:16.376Z,5.42
2018-01-27T06:56:45.001Z,5.42
2018-01-27T06:59:13.514Z,5.49
2018-01-27T07:01:42.105Z,5.61
2018-01-27T07:04:10.639Z,5.53
2018-01-27T07:06:39.351Z,5.33
2018-01-27T07:09:08.604Z,5.19
2018-01-27T07:11:37.144Z,5.28
2018-01-27T07:14:05.628Z,5.33
2018-01-27T07:16:34.782Z,5.33
2018-01-27T07:19:03.544Z,5.44
2018-01-27T07:21:31.922Z,5.35
2018-01-27T07:24:00.352Z,5.41
2018-01-27T07:26:29.503Z,5.44
2018-01-27T07:28:57.850Z,5.49
2018-01-27T07:31:27.773Z,5.62
2018-01-27T07:33:56.211Z,5.70
2018-01-27T07:36:24.685Z,5.81
2018-01-27T07:38:53.100Z,5.88
2018-01-27T07:41:22.275Z,6.07
2018-01-27T07:43:50.640Z,6.13
2018-01-27T07:46:19.008Z,6.19
2018-01-27T07:48:47.479Z,6.30
2018-01-27T07:51:15.922Z,6.46
2018-01-27T07:53:44.288Z,6.48
2018-01-27T07:56:13.446Z,6.44
2018-01-27T07:58:41.873Z,6.57
2018-01-27T08:01:10.266Z,6.67
2018-01-27T08:03:41.214Z,6.75
2018-01-27T08:06:09.621Z,6.83
2018-01-27T08:08:39.508Z,6.76
2018-01-27T08:11:08.072Z,6.71
2018-01-27T08:13:36.644Z,6.87
2018-01-27T08:16:05.952Z,6.96
2018-01-27T08:18:35.349Z,7.01
2018-01-27T08:21:04.845Z,6.90
2018-01-27T08:23:34.189Z,7.02
2018-01-27T08:26:03.618Z,6.86
2018-01-27T08:28:32.166Z,6.82
2018-01-27T08:31:00.577Z,6.98
2018-01-27T08:33:29.049Z,7.16
2018-01-27T08:35:57.528Z,7.41
2018-01-27T08:38:26.250Z,7.61
2018-01-27T08:40:55.660Z,7.92
2018-01-27T08:43:25.059Z,7.75
2018-01-27T08:45:54.401Z,7.77
2018-01-27T08:48:28.272Z,8.48
2018-01-27T08:50:57.808Z,8.29
2018-01-27T08:53:26.596Z,8.28
2018-01-27T08:55:55.001Z,7.89
2018-01-27T08:58:23.410Z,7.77
2018-01-27T09:00:52.657Z,7.74
2018-01-27T09:03:21.232Z,7.68
2018-01-27T09:05:49.809Z,7.74
2018-01-27T09:08:19.142Z,7.74
2018-01-27T09:10:48.188Z,7.44
2018-01-27T09:13:16.767Z,7.51
2018-01-27T09:15:45.600Z,7.52
2018-01-27T09:18:14.079Z,7.55
2018-01-27T09:20:42.483Z,7.57
2018-01-27T09:23:10.942Z,7.73
2018-01-27T09:25:39.524Z,7.72
2018-01-27T09:28:08.145Z,7.94
2018-01-27T09:30:36.619Z,7.75
2018-01-27T09:33:05.205Z,8.05
2018-01-27T09:35:33.690Z,8.04
2018-01-27T09:38:02.188Z,8.01
2018-01-27T09:40:30.776Z,8.16
2018-01-27T09:42:59.211Z,8.21
2018-01-27T09:45:27.644Z,8.13
2018-01-27T09:47:56.918Z,7.89
2018-01-27T09:50:26.577Z,7.73
2018-01-27T09:52:55.207Z,7.65
2018-01-27T09:55:23.715Z,7.83
2018-01-27T09:57:52.962Z,8.19
2018-01-27T10:00:21.434Z,8.20
2018-01-27T10:02:49.872Z,7.95
2018-01-27T10:05:18.475Z,8.11
2018-01-27T10:07:46.884Z,8.12
2018-01-27T10:10:15.305Z,8.07
2018-01-27T10:12:43.729Z,8.13
2018-01-27T10:15:12.227Z,8.26
2018-01-27T10:17:40.679Z,8.46
2018-01-27T10:20:09.229Z,8.53
2018-01-27T10:22:37.713Z,8.77
2018-01-27T10:25:06.076Z,8.50
2018-01-27T10:28:01.644Z,8.32
2018-01-27T10:30:30.062Z,8.33
2018-01-27T10:32:58.420Z,8.21
2018-01-27T10:35:26.796Z,8.44
2018-01-27T10:37:55.145Z,8.26
2018-01-27T10:40:24.268Z,8.31
2018-01-27T10:42:52.651Z,8.51
2018-01-27T10:45:21.008Z,8.23
2018-01-27T10:47:50.180Z,8.12
2018-01-27T10:50:18.581Z,8.22
2018-01-27T10:52:47.713Z,8.33
2018-01-27T10:55:16.309Z,8.40
2018-01-27T10:57:44.799Z,8.51
2018-01-27T11:00:13.243Z,8.33
2018-01-27T11:02:41.801Z,8.42
2018-01-27T11:05:10.249Z,8.60
2018-01-27T11:07:38.785Z,8.60
2018-01-27T11:10:07.357Z,8.55
2018-01-27T11:12:35.765Z,8.60
2018-01-27T11:15:04.170Z,8.63
2018-01-27T11:17:32.617Z,8.51
2018-01-27T11:20:01.105Z,8.43
2018-01-27T11:22:29.577Z,8.46
2018-01-27T11:24:58.120Z,8.43
2018-01-27T11:27:26.657Z,8.62
2018-01-27T11:29:55.164Z,8.74
2018-01-27T11:32:23.568Z,8.65
2018-01-27T11:34:52.792Z,8.61
2018-01-27T11:37:21.213Z,8.68
2018-01-27T11:39:49.690Z,8.82
2018-01-27T11:42:18.173Z,8.83
2018-01-27T11:44:46.711Z,9.11
2018-01-27T11:47:15.164Z,9.15
2018-01-27T11:49:43.633Z,9.05
2018-01-27T11:52:12.016Z,9.13
2018-01-27T11:54:40.491Z,9.20
2018-01-27T11:57:09.000Z,9.32
2018-01-27T11:59:38.204Z,9.70
2018-01-27T12:02:07.416Z,9.37
2018-01-27T12:04:35.799Z,9.56
2018-01-27T12:07:04.223Z,9.59
2018-01-27T12:09:32.696Z,9.35
2018-01-27T12:12:01.071Z,9.35
2018-01-27T12:14:29.434Z,9.55
2018-01-27T12:16:57.824Z,9.76
2018-01-27T12:19:26.257Z,10.07
2018-01-27T12:21:55.393Z,10.12
2018-01-27T12:24:23.785Z,10.11
2018-01-27T12:26:52.200Z,9.99
2018-01-27T12:29:21.403Z,10.01
2018-01-27T12:31:50.651Z,9.99
2018-01-27T12:34:19.028Z,10.16
2018-01-27T12:36:47.729Z,10.17
2018-01-27T12:39:16.271Z,11.39
2018-01-27T12:41:44.775Z,11.72
2018-01-27T12:44:13.312Z,12.15
2018-01-27T12:46:42.469Z,10.86
2018-01-27T12:49:10.917Z,10.57
2018-01-27T12:51:39.354Z,10.35
2018-01-27T12:54:07.897Z,9.99
2018-01-27T12:56:36.612Z,9.76
2018-01-27T12:59:05.025Z,9.93
2018-01-27T13:01:33.545Z,10.13
2018-01-27T13:04:02.026Z,9.99
2018-01-27T13:06:30.530Z,10.05
2018-01-27T13:08:59.560Z,9.88
2018-01-27T13:11:29.258Z,9.70
2018-01-27T13:13:57.800Z,9.66
2018-01-27T13:16:26.264Z,9.91
2018-01-27T13:18:54.864Z,9.89
2018-01-27T13:21:23.359Z,9.79
2018-01-27T13:23:51.823Z,9.57
2018-01-27T13:26:20.396Z,9.42
2018-01-27T13:28:48.838Z,9.45
2018-01-27T13:31:17.265Z,9.24
2018-01-27T13:33:45.746Z,9.27
2018-01-27T13:36:14.182Z,9.33
2018-01-27T13:38:43.544Z,9.19
2018-01-27T13:41:12.745Z,9.30
2018-01-27T13:43:41.258Z,9.28
2018-01-27T13:46:10.531Z,9.26
2018-01-27T13:48:38.999Z,9.28
2018-01-27T13:51:07.462Z,9.32
2018-01-27T13:53:35.948Z,9.43
2018-01-27T13:56:05.045Z,9.84
2018-01-27T13:58:33.460Z,9.34
2018-01-27T14:01:02.018Z,9.37
2018-01-27T14:03:30.454Z,9.23
2018-01-27T14:05:59.752Z,9.63
2018-01-27T14:08:28.916Z,9.44
2018-01-27T14:10:57.439Z,9.36
2018-01-27T14:13:25.972Z,9.20
2018-01-27T14:15:54.510Z,9.28
2018-01-27T14:18:22.948Z,9.17
2018-01-27T14:20:51.441Z,9.19
2018-01-27T14:23:19.859Z,9.08
2018-01-27T14:25:48.355Z,9.14
2018-01-27T14:28:16.772Z,9.09
2018-01-27T14:30:45.271Z,9.00
2018-01-27T14:33:14.506Z,9.01
2018-01-27T14:35:42.937Z,8.97
2018-01-27T14:38:11.348Z,8.98
2018-01-27T14:40:40.512Z,9.06
2018-01-27T14:43:08.955Z,9.15
2018-01-27T14:45:37.427Z,9.17
2018-01-27T14:48:06.096Z,9.18
2018-01-27T14:50:34.469Z,9.15
2018-01-27T14:53:03.663Z,9.06
2018-01-27T14:55:32.966Z,9.18
2018-01-27T14:58:01.402Z,9.03
2018-01-27T15:00:30.140Z,8.91
2018-01-27T15:02:58.681Z,9.05
2018-01-27T15:05:27.245Z,8.87
2018-01-27T15:07:55.754Z,8.93
2018-01-27T15:10:24.294Z,8.90
2018-01-27T15:12:52.859Z,8.85
2018-01-27T15:15:21.438Z,8.79
2018-01-27T15:17:49.931Z,8.60
2018-01-27T15:20:18.391Z,8.65
2018-01-27T15:22:48.608Z,8.74
2018-01-27T15:25:17.891Z,8.74
2018-01-27T15:27:47.118Z,8.68
2018-01-27T15:30:15.633Z,8.52
2018-01-27T15:32:44.085Z,8.53
2018-01-27T15:35:13.309Z,8.54
2018-01-27T15:37:41.729Z,8.40
2018-01-27T15:40:10.165Z,8.47
2018-01-27T15:42:38.577Z,8.39
2018-01-27T15:45:07.212Z,8.28
2018-01-27T15:47:35.621Z,8.21
2018-01-27T15:50:04.154Z,8.25
2018-01-27T15:52:32.668Z,8.17
2018-01-27T15:55:01.131Z,8.21
2018-01-27T15:57:29.516Z,8.24
2018-01-27T15:59:57.968Z,8.21
2018-01-27T16:02:27.101Z,8.17
2018-01-27T16:04:55.585Z,8.07
2018-01-27T16:07:24.071Z,8.05
2018-01-27T16:09:52.747Z,8.00
2018-01-27T16:12:21.196Z,7.97
2018-01-27T16:14:50.350Z,7.73
2018-01-27T16:17:19.076Z,7.70
2018-01-27T16:19:48.209Z,7.64
2018-01-27T16:22:16.576Z,7.59
2018-01-27T16:24:45.054Z,7.48
2018-01-27T16:27:13.538Z,7.48
2018-01-27T16:29:41.995Z,7.48
2018-01-27T16:32:11.203Z,8.70
2018-01-27T16:34:39.674Z,7.88
2018-01-27T16:37:08.938Z,7.56
2018-01-27T16:39:37.336Z,7.38
2018-01-27T16:42:05.857Z,7.29
2018-01-27T16:44:34.286Z,7.29
2018-01-27T16:47:02.676Z,7.26
2018-01-27T16:49:31.166Z,7.36
2018-01-27T16:51:59.621Z,7.71
2018-01-27T16:54:28.126Z,7.94
2018-01-27T16:56:56.576Z,8.05
2018-01-27T16:59:24.969Z,7.54
2018-01-27T17:01:53.541Z,7.34
2018-01-27T17:04:21.985Z,7.25
2018-01-27T17:06:50.458Z,7.03
2018-01-27T17:09:19.664Z,6.85
2018-01-27T17:11:48.081Z,6.91
2018-01-27T17:14:16.532Z,6.54
2018-01-27T17:16:44.942Z,6.34
2018-01-27T17:19:13.346Z,6.17
2018-01-27T17:21:41.751Z,6.10
2018-01-27T17:24:10.224Z,6.08
2018-01-27T17:26:39.363Z,5.98
2018-01-27T17:29:07.753Z,5.93
2018-01-27T17:31:36.187Z,5.91
2018-01-27T17:34:05.395Z,5.86
2018-01-27T17:36:33.861Z,5.82
2018-01-27T17:39:03.072Z,5.79
2018-01-27T17:41:31.450Z,5.80
2018-01-27T17:43:59.837Z,5.79
2018-01-27T17:46:28.275Z,5.76
2018-01-27T17:48:56.748Z,5.72
2018-01-27T17:51:25.193Z,5.75
2018-01-27T17:53:53.581Z,5.69
2018-01-27T17:56:21.968Z,5.69
2018-01-27T17:58:50.409Z,5.67
2018-01-27T18:01:18.866Z,5.70
2018-01-27T18:03:47.249Z,5.66
2018-01-27T18:06:15.858Z,5.62
2018-01-27T18:08:44.312Z,5.56
2018-01-27T18:11:13.523Z,5.50
2018-01-27T18:13:42.719Z,5.51
2018-01-27T18:16:11.916Z,5.36
2018-01-27T18:18:41.083Z,5.31
2018-01-27T18:21:09.515Z,5.27
2018-01-27T18:23:37.973Z,5.20
2018-01-27T18:26:07.216Z,5.25
2018-01-27T18:28:35.617Z,5.23
2018-01-27T18:31:03.981Z,5.22
2018-01-27T18:33:32.416Z,5.17
2018-01-27T18:36:00.814Z,5.21
2018-01-27T18:38:29.283Z,5.23
2018-01-27T18:40:57.669Z,5.31
2018-01-27T18:43:26.053Z,5.36
2018-01-27T18:45:54.516Z,5.41
2018-01-27T18:48:22.959Z,5.48
2018-01-27T18:50:51.441Z,5.47
2018-01-27T18:53:19.857Z,5.45
2018-01-27T18:55:48.298Z,5.44
2018-01-27T18:58:16.664Z,5.44
2018-01-27T19:00:45.059Z,5.44
2018-01-27T19:03:13.428Z,5.42
2018-01-27T19:05:41.896Z,5.43
2018-01-27T19:08:10.349Z,5.48
2018-01-27T19:10:38.846Z,5.53
2018-01-27T19:13:07.309Z,5.56
2018-01-27T19:15:35.791Z,5.63
2018-01-27T19:18:04.412Z,5.61
